Time;durP1;ratioP1;P1;durP2;ratioP2;P2;SDS_P1;SDS_P2;PMS_P1;PMS_P2;Temp;Humidity;BMP_temperature;BMP_pressure;BME280_temperature;BME280_humidity;BME280_pressure;Samples;Min_cycle;Max_cycle;Signal;HPM_P1;HPM_P2
2023/11/23 00:00:05;;;;;;;0.30;0.17;;;;;;;3.43;93.15;101470.44;5006883;28;20486;-46
2023/11/23 00:02:32;;;;;;;0.30;0.10;;;;;;;3.33;94.00;101458.84;5013976;28;20540;-45
2023/11/23 00:04:59;;;;;;;0.20;0.20;;;;;;;3.31;93.24;101442.19;5001098;28;20537;-46
2023/11/23 00:07:25;;;;;;;0.30;0.20;;;;;;;3.22;92.73;101448.13;5003657;28;20457;-46
2023/11/23 00:09:51;;;;;;;0.20;0.10;;;;;;;3.27;92.97;101440.31;5006642;28;20487;-46
2023/11/23 00:12:18;;;;;;;0.20;0.20;;;;;;;3.20;93.20;101441.06;5003372;28;20453;-46
2023/11/23 00:14:44;;;;;;;0.20;0.13;;;;;;;3.02;93.32;101431.09;5004839;28;20578;-45
2023/11/23 00:17:12;;;;;;;0.20;0.10;;;;;;;3.17;93.05;101436.66;5004007;28;20817;-46
2023/11/23 00:19:39;;;;;;;0.30;0.10;;;;;;;3.01;92.06;101431.03;5002138;28;20555;-46
2023/11/23 00:22:06;;;;;;;0.30;0.20;;;;;;;3.09;92.20;101432.09;5009286;28;20540;-46
2023/11/23 00:24:33;;;;;;;0.20;0.10;;;;;;;2.98;92.76;101426.59;5011251;28;20480;-45
2023/11/23 00:26:59;;;;;;;0.30;0.17;;;;;;;2.95;92.72;101432.69;5007280;28;20817;-45
2023/11/23 00:29:26;;;;;;;0.30;0.20;;;;;;;2.92;93.08;101427.38;5004536;28;20503;-46
2023/11/23 00:31:52;;;;;;;0.30;0.10;;;;;;;2.87;92.98;101433.38;5017553;28;20444;-45
2023/11/23 00:34:20;;;;;;;0.30;0.10;;;;;;;2.98;92.81;101435.38;5004929;28;21095;-45
2023/11/23 00:36:46;;;;;;;0.20;0.10;;;;;;;2.83;92.61;101421.94;5016016;28;20948;-45
2023/11/23 00:39:13;;;;;;;0.30;0.10;;;;;;;2.77;92.21;101429.69;5001888;28;20464;-45
2023/11/23 00:41:39;;;;;;;0.30;0.10;;;;;;;2.85;92.53;101427.22;5005327;28;20449;-45
2023/11/23 00:44:06;;;;;;;0.30;0.20;;;;;;;2.84;91.44;101425.44;5008016;28;20545;-46
2023/11/23 00:46:35;;;;;;;0.30;0.20;;;;;;;2.83;91.91;101416.69;5022638;28;20535;-45
2023/11/23 00:49:04;;;;;;;0.30;0.10;;;;;;;2.66;91.87;101405.81;5014939;28;20449;-46
2023/11/23 00:51:32;;;;;;;0.27;0.10;;;;;;;2.62;92.05;101409.25;5005187;28;20805;-46
2023/11/23 00:53:59;;;;;;;0.20;0.10;;;;;;;2.65;92.49;101408.41;5004706;28;20969;-47
2023/11/23 00:56:25;;;;;;;0.30;0.20;;;;;;;2.54;92.48;101409.91;5007506;28;20492;-45
2023/11/23 00:58:52;;;;;;;0.30;0.20;;;;;;;2.45;93.09;101400.09;5010986;28;20453;-45
2023/11/23 01:01:18;;;;;;;0.20;0.10;;;;;;;2.43;92.55;101393.94;5007973;28;20540;-45
2023/11/23 01:03:45;;;;;;;0.20;0.10;;;;;;;2.48;92.84;101387.06;5013940;28;20480;-46
2023/11/23 01:06:12;;;;;;;0.30;0.10;;;;;;;2.37;92.75;101384.19;4999611;28;21012;-46
2023/11/23 01:08:38;;;;;;;0.27;0.20;;;;;;;2.45;91.90;101388.72;5010087;28;20872;-45
2023/11/23 01:11:05;;;;;;;0.30;0.20;;;;;;;2.33;93.26;101377.13;5013577;28;20491;-48
2023/11/23 01:13:31;;;;;;;0.23;0.10;;;;;;;2.44;91.92;101386.94;5004639;28;20816;-46
2023/11/23 01:15:58;;;;;;;0.20;0.10;;;;;;;2.31;92.31;101386.66;5006553;28;20502;-46
2023/11/23 01:18:24;;;;;;;0.30;0.10;;;;;;;2.31;92.00;101375.28;5011458;28;21336;-46
2023/11/23 01:20:51;;;;;;;0.20;0.10;;;;;;;2.25;92.30;101383.03;5008972;28;20475;-46
2023/11/23 01:23:17;;;;;;;0.20;0.20;;;;;;;2.25;93.12;101372.53;5003748;28;20587;-46
2023/11/23 01:25:45;;;;;;;0.20;0.20;;;;;;;2.22;92.92;101385.59;5009909;28;20445;-46
2023/11/23 01:28:12;;;;;;;0.20;0.10;;;;;;;2.19;92.64;101385.50;5003659;28;20452;-47
2023/11/23 01:30:38;;;;;;;0.20;0.10;;;;;;;2.28;93.32;101393.59;5008820;28;20469;-47
2023/11/23 01:33:05;;;;;;;0.20;0.10;;;;;;;2.26;92.74;101388.31;5011648;28;20516;-47
2023/11/23 01:35:31;;;;;;;0.20;0.10;;;;;;;2.26;91.81;101390.06;5008834;28;20997;-47
2023/11/23 01:37:58;;;;;;;0.30;0.10;;;;;;;2.35;93.01;101382.41;5003014;28;20449;-46
2023/11/23 01:40:24;;;;;;;0.20;0.20;;;;;;;2.35;92.78;101388.53;5014732;28;20559;-46
2023/11/23 01:42:51;;;;;;;0.20;0.13;;;;;;;2.25;92.85;101385.66;5001365;28;20452;-47
2023/11/23 01:45:17;;;;;;;0.20;0.10;;;;;;;2.21;92.91;101391.69;5010264;28;20444;-46
2023/11/23 01:47:46;;;;;;;0.20;0.10;;;;;;;2.11;92.82;101385.34;5027560;28;20445;-46
2023/11/23 01:50:14;;;;;;;0.30;0.10;;;;;;;2.05;92.49;101387.81;5001309;28;20494;-46
2023/11/23 01:52:41;;;;;;;0.20;0.10;;;;;;;1.95;93.81;101385.84;5007218;28;20834;-47
2023/11/23 01:55:08;;;;;;;0.20;0.10;;;;;;;1.96;93.17;101384.97;5007255;28;20974;-46
2023/11/23 01:57:40;;;;;;;0.20;0.10;;;;;;;2.06;93.22;101382.63;5007086;28;20545;-47
2023/11/23 02:00:08;;;;;;;0.20;0.10;;;;;;;1.87;93.35;101369.91;5007258;28;20568;-47
2023/11/23 02:02:34;;;;;;;0.30;0.10;;;;;;;1.82;93.52;101362.78;5013479;28;20453;-47
2023/11/23 02:05:05;;;;;;;0.20;0.10;;;;;;;1.98;93.11;101357.94;5002696;28;20481;-47
2023/11/23 02:07:33;;;;;;;0.20;0.10;;;;;;;1.90;94.07;101374.31;5002592;28;20527;-46
2023/11/23 02:09:59;;;;;;;0.30;0.10;;;;;;;1.83;94.34;101370.69;5000073;28;20568;-46
2023/11/23 02:12:27;;;;;;;0.20;0.10;;;;;;;1.93;93.29;101356.97;5013524;28;20536;-47
2023/11/23 02:14:54;;;;;;;0.20;0.10;;;;;;;1.82;93.58;101358.44;5000167;28;20540;-46
2023/11/23 02:17:21;;;;;;;0.20;0.20;;;;;;;1.81;93.63;101361.03;5004913;28;20788;-47
2023/11/23 02:19:49;;;;;;;0.20;0.10;;;;;;;1.83;93.31;101365.44;5006778;28;20508;-47
2023/11/23 02:22:16;;;;;;;0.20;0.10;;;;;;;1.73;93.37;101359.09;5003169;28;20448;-46
2023/11/23 02:24:43;;;;;;;0.20;0.10;;;;;;;1.73;93.45;101345.97;5000295;28;20531;-46
2023/11/23 02:27:11;;;;;;;0.20;0.10;;;;;;;1.33;93.32;101336.25;5003363;28;20889;-48
2023/11/23 02:29:38;;;;;;;0.20;0.13;;;;;;;1.77;93.70;101336.44;5006373;28;20573;-46
2023/11/23 02:32:09;;;;;;;0.20;0.10;;;;;;;1.71;94.66;101333.69;4998769;28;20833;-46
2023/11/23 02:34:37;;;;;;;0.20;0.13;;;;;;;1.65;94.28;101326.59;5006541;28;20485;-47
2023/11/23 02:37:04;;;;;;;0.20;0.10;;;;;;;1.43;95.21;101324.28;5009231;28;20868;-46
2023/11/23 02:39:31;;;;;;;0.20;0.10;;;;;;;1.47;95.62;101324.38;5011414;28;20511;-47
2023/11/23 02:41:59;;;;;;;0.20;0.10;;;;;;;1.70;94.97;101330.19;5002119;28;20544;-46
2023/11/23 02:44:26;;;;;;;0.20;0.10;;;;;;;1.56;94.50;101326.34;5006947;28;20463;-47
2023/11/23 02:46:52;;;;;;;0.20;0.13;;;;;;;1.67;94.03;101326.63;5012707;28;20452;-47
2023/11/23 02:49:18;;;;;;;0.20;0.10;;;;;;;1.56;94.03;101321.13;4999611;28;20496;-46
2023/11/23 02:51:45;;;;;;;0.20;0.10;;;;;;;1.73;92.85;101327.63;5000726;28;20450;-47
2023/11/23 02:54:12;;;;;;;0.20;0.10;;;;;;;1.59;92.81;101323.81;5006373;28;20453;-46
2023/11/23 02:56:39;;;;;;;0.20;0.10;;;;;;;1.67;94.02;101326.63;5005525;28;20483;-47
2023/11/23 02:59:07;;;;;;;0.20;0.10;;;;;;;1.69;93.82;101324.91;4999083;28;21029;-47
2023/11/23 03:01:34;;;;;;;0.20;0.10;;;;;;;1.73;93.22;101329.38;5010578;28;20463;-46
2023/11/23 03:04:01;;;;;;;0.20;0.20;;;;;;;1.61;93.24;101335.19;5005555;28;20981;-47
2023/11/23 03:06:27;;;;;;;0.20;0.10;;;;;;;1.59;93.91;101338.63;5005658;28;20444;-46
2023/11/23 03:08:54;;;;;;;0.20;0.10;;;;;;;1.73;93.47;101330.25;5000200;28;20531;-47
2023/11/23 03:11:22;;;;;;;0.20;0.10;;;;;;;1.63;93.60;101327.38;5005258;28;20457;-47
2023/11/23 03:13:49;;;;;;;0.20;0.20;;;;;;;1.68;94.73;101328.41;5008111;28;20934;-46
2023/11/23 03:16:15;;;;;;;0.20;0.13;;;;;;;1.83;95.09;101318.28;4999088;28;20529;-47
2023/11/23 03:18:42;;;;;;;0.20;0.10;;;;;;;1.83;95.50;101315.66;5004319;28;20533;-47
2023/11/23 03:21:09;;;;;;;0.20;0.20;;;;;;;2.07;95.40;101310.97;5005652;28;20472;-47
2023/11/23 03:23:36;;;;;;;0.20;0.17;;;;;;;2.11;95.03;101298.81;5000946;28;20456;-47
2023/11/23 03:26:03;;;;;;;0.20;0.10;;;;;;;2.25;94.23;101305.22;4999141;28;20456;-47
2023/11/23 03:28:30;;;;;;;0.20;0.10;;;;;;;2.41;94.74;101298.56;5003121;28;20465;-47
2023/11/23 03:30:57;;;;;;;0.20;0.10;;;;;;;2.25;95.96;101292.13;5007876;28;20504;-46
2023/11/23 03:33:23;;;;;;;0.20;0.10;;;;;;;2.41;94.74;101287.19;5003273;28;20453;-46
2023/11/23 03:35:50;;;;;;;0.20;0.10;;;;;;;2.46;94.15;101289.03;5005769;28;20490;-46
2023/11/23 03:38:17;;;;;;;0.20;0.10;;;;;;;2.63;94.22;101297.28;4993603;28;20450;-47
2023/11/23 03:40:44;;;;;;;0.20;0.10;;;;;;;2.79;93.47;101290.59;5003344;28;20501;-46
2023/11/23 03:43:10;;;;;;;0.20;0.20;;;;;;;2.80;92.89;101298.47;5002720;28;21069;-46
2023/11/23 03:45:37;;;;;;;0.20;0.10;;;;;;;2.88;92.75;101289.03;5009503;28;20445;-47
2023/11/23 03:48:03;;;;;;;0.20;0.10;;;;;;;3.00;92.79;101285.72;5006760;28;20874;-46
2023/11/23 03:50:31;;;;;;;0.20;0.20;;;;;;;3.23;92.45;101278.25;4999526;28;20562;-47
2023/11/23 03:52:57;;;;;;;0.20;0.10;;;;;;;3.27;92.11;101273.06;5014039;28;20452;-47
2023/11/23 03:55:23;;;;;;;0.20;0.10;;;;;;;3.10;93.27;101269.25;5002594;28;20485;-46
2023/11/23 03:57:50;;;;;;;0.20;0.10;;;;;;;3.08;92.94;101271.00;5007319;28;20508;-46
2023/11/23 04:00:17;;;;;;;0.20;0.10;;;;;;;3.31;92.88;101268.75;5010209;28;21019;-46
2023/11/23 04:02:43;;;;;;;0.20;0.10;;;;;;;3.27;92.77;101266.91;5016254;28;20452;-47
2023/11/23 04:05:10;;;;;;;0.20;0.10;;;;;;;3.47;91.90;101275.16;5008172;28;20448;-47
2023/11/23 04:07:37;;;;;;;0.30;0.13;;;;;;;3.36;91.58;101269.72;5005687;28;20444;-47
2023/11/23 04:10:04;;;;;;;0.27;0.20;;;;;;;3.32;92.66;101269.66;5002358;28;20521;-46
2023/11/23 04:12:31;;;;;;;0.20;0.10;;;;;;;3.37;92.30;101270.59;5009605;28;20531;-46
2023/11/23 04:14:57;;;;;;;0.30;0.20;;;;;;;3.67;91.88;101260.56;5003577;28;20548;-46
2023/11/23 04:17:24;;;;;;;0.20;0.20;;;;;;;3.60;91.39;101261.34;5005658;28;21013;-46
2023/11/23 04:19:51;;;;;;;0.20;0.10;;;;;;;3.52;92.96;101261.22;5011580;28;20508;-47
2023/11/23 04:22:17;;;;;;;0.20;0.10;;;;;;;3.70;92.67;101270.22;5015516;28;20452;-47
2023/11/23 04:24:44;;;;;;;0.30;0.10;;;;;;;3.76;91.77;101265.97;5002008;28;20491;-46
2023/11/23 04:27:11;;;;;;;0.30;0.10;;;;;;;3.66;92.67;101266.69;5011208;28;20452;-48
2023/11/23 04:29:38;;;;;;;0.20;0.10;;;;;;;3.89;92.34;101266.16;5011395;28;20470;-47
2023/11/23 04:32:06;;;;;;;0.20;0.10;;;;;;;3.89;91.89;101274.03;5011209;28;20531;-47
2023/11/23 04:34:33;;;;;;;0.23;0.10;;;;;;;3.92;91.13;101266.19;5001983;28;20495;-49
2023/11/23 04:36:59;;;;;;;0.20;0.10;;;;;;;3.92;91.47;101258.28;5004209;28;20491;-49
2023/11/23 04:39:26;;;;;;;0.20;0.10;;;;;;;4.14;91.50;101263.00;5008598;28;20512;-48
2023/11/23 04:41:52;;;;;;;0.30;0.20;;;;;;;4.02;90.94;101257.56;4996472;28;20573;-48
2023/11/23 04:44:19;;;;;;;0.30;0.10;;;;;;;4.09;91.44;101254.13;5008760;28;20536;-49
2023/11/23 04:46:45;;;;;;;0.30;0.10;;;;;;;4.32;90.32;101259.72;5026059;28;20887;-48
2023/11/23 04:49:12;;;;;;;0.30;0.20;;;;;;;4.33;89.67;101258.84;5011873;28;20910;-49
2023/11/23 04:51:39;;;;;;;0.30;0.20;;;;;;;4.59;88.58;101260.03;5006398;28;20448;-50
2023/11/23 04:54:06;;;;;;;0.30;0.20;;;;;;;4.70;87.88;101260.16;5001650;28;20460;-49
2023/11/23 04:56:33;;;;;;;0.30;0.20;;;;;;;4.79;88.31;101265.50;5003416;28;20493;-50
2023/11/23 04:58:59;;;;;;;0.30;0.10;;;;;;;4.76;87.41;101255.81;5008026;28;20459;-50
2023/11/23 05:01:25;;;;;;;0.30;0.10;;;;;;;4.78;87.21;101258.47;5005978;28;20488;-48
2023/11/23 05:03:52;;;;;;;0.30;0.20;;;;;;;4.76;86.96;101252.31;5009726;28;20456;-50
2023/11/23 05:06:19;;;;;;;0.30;0.20;;;;;;;4.75;86.59;101255.81;5006335;28;20514;-50
2023/11/23 05:08:46;;;;;;;0.97;0.97;;;;;;;4.89;85.98;101248.94;5001438;28;20452;-49
2023/11/23 05:11:12;;;;;;;0.30;0.20;;;;;;;5.10;86.43;101232.47;5002689;28;20517;-50
2023/11/23 05:13:39;;;;;;;0.30;0.20;;;;;;;4.94;86.69;101226.19;5013063;28;20958;-50
2023/11/23 05:16:07;;;;;;;0.30;0.13;;;;;;;5.02;86.79;101232.38;5002322;28;20587;-50
2023/11/23 05:18:33;;;;;;;0.30;0.20;;;;;;;4.93;86.25;101248.09;5007649;28;20832;-49
2023/11/23 05:21:00;;;;;;;0.30;0.20;;;;;;;4.84;86.96;101250.66;5006986;28;20978;-49
2023/11/23 05:23:26;;;;;;;0.30;0.20;;;;;;;4.82;87.36;101248.88;5001213;28;20514;-50
2023/11/23 05:25:53;;;;;;;0.30;0.20;;;;;;;4.78;87.42;101258.47;5001639;28;20457;-50
2023/11/23 05:28:20;;;;;;;0.30;0.20;;;;;;;4.71;88.47;101252.28;5007732;28;20457;-50
2023/11/23 05:30:47;;;;;;;0.30;0.20;;;;;;;4.68;88.17;101248.72;5006859;28;20476;-49
2023/11/23 05:33:13;;;;;;;0.30;0.10;;;;;;;4.71;88.48;101246.13;5007804;28;20532;-49
2023/11/23 05:35:42;;;;;;;0.30;0.20;;;;;;;4.53;89.83;101245.94;5007519;28;20449;-48
2023/11/23 05:38:08;;;;;;;0.30;0.20;;;;;;;4.51;90.45;101242.38;5000978;28;20492;-50
2023/11/23 05:40:34;;;;;;;0.30;0.20;;;;;;;4.75;89.70;101245.28;5000560;28;20622;-49
2023/11/23 05:43:01;;;;;;;0.30;0.20;;;;;;;4.70;90.33;101250.50;5006533;28;20543;-48
2023/11/23 05:45:32;;;;;;;0.30;0.17;;;;;;;4.34;91.06;101245.69;5010742;28;20852;-49
2023/11/23 05:47:58;;;;;;;0.30;0.10;;;;;;;4.39;91.14;101244.03;5025334;28;20531;-50
2023/11/23 05:50:25;;;;;;;0.30;0.20;;;;;;;4.64;90.42;101245.16;5000657;28;20473;-50
2023/11/23 05:52:51;;;;;;;0.30;0.20;;;;;;;4.60;90.76;101245.13;5005925;28;20484;-49
2023/11/23 05:55:18;;;;;;;0.30;0.20;;;;;;;4.70;89.51;101245.25;5007289;28;20460;-49
2023/11/23 05:57:44;;;;;;;0.30;0.20;;;;;;;4.68;90.62;101235.56;5001941;28;20499;-50
2023/11/23 06:00:11;;;;;;;0.27;0.10;;;;;;;4.81;90.36;101228.69;5000078;28;20568;-49
2023/11/23 06:02:38;;;;;;;0.30;0.10;;;;;;;4.73;90.57;101234.75;5013405;28;20460;-50
2023/11/23 06:05:05;;;;;;;0.30;0.10;;;;;;;4.71;90.54;101228.56;5000557;28;20453;-49
2023/11/23 06:07:32;;;;;;;0.30;0.20;;;;;;;4.78;90.52;101213.69;5004685;28;20449;-49
2023/11/23 06:10:01;;;;;;;0.30;0.20;;;;;;;4.78;90.80;101223.34;5006438;28;20480;-50
2023/11/23 06:12:27;;;;;;;0.30;0.10;;;;;;;4.93;91.77;101219.13;5002558;28;20461;-49
2023/11/23 06:14:54;;;;;;;0.30;0.20;;;;;;;4.86;91.18;101213.78;5009385;28;20994;-49
2023/11/23 06:17:21;;;;;;;0.30;0.20;;;;;;;4.70;91.61;101225.94;5003531;28;20527;-49
2023/11/23 06:19:48;;;;;;;0.30;0.20;;;;;;;4.66;92.22;101221.47;4999895;28;20476;-49
2023/11/23 06:22:14;;;;;;;0.30;0.20;;;;;;;4.71;92.26;101225.06;5003496;28;20503;-50
2023/11/23 06:24:40;;;;;;;0.30;0.20;;;;;;;4.55;93.07;101217.88;5006661;28;20488;-50
2023/11/23 06:27:09;;;;;;;0.27;0.20;;;;;;;4.52;93.38;101216.06;5003566;28;20452;-50
2023/11/23 06:29:35;;;;;;;0.20;0.10;;;;;;;4.64;92.93;101218.81;4999574;28;20502;-50
2023/11/23 06:32:02;;;;;;;0.30;0.10;;;;;;;4.79;92.50;101217.22;5012762;28;20449;-50
2023/11/23 06:34:32;;;;;;;0.30;0.20;;;;;;;4.67;93.19;101197.81;4999737;28;20454;-49
2023/11/23 06:36:58;;;;;;;0.30;0.20;;;;;;;4.85;92.38;101201.50;5001795;28;20857;-50
2023/11/23 06:39:25;;;;;;;0.30;0.20;;;;;;;5.09;92.71;101212.25;5006276;28;20480;-50
2023/11/23 06:41:52;;;;;;;0.30;0.20;;;;;;;5.24;91.43;101220.28;5004404;28;20499;-50
2023/11/23 06:44:22;;;;;;;0.30;0.20;;;;;;;5.18;90.54;101236.03;5007441;28;20809;-51
2023/11/23 06:46:48;;;;;;;0.30;0.20;;;;;;;5.14;92.02;101242.16;5016530;28;20467;-50
2023/11/23 06:49:15;;;;;;;0.30;0.20;;;;;;;5.12;91.01;101238.63;5008959;28;21066;-51
2023/11/23 06:51:41;;;;;;;0.30;0.20;;;;;;;5.12;91.51;101248.28;5004694;28;20456;-50
2023/11/23 06:54:11;;;;;;;0.30;0.20;;;;;;;5.17;91.86;101244.81;4999379;28;20895;-50
2023/11/23 06:56:37;;;;;;;0.30;0.10;;;;;;;5.21;91.77;101249.25;5035002;28;20496;-50
2023/11/23 06:59:04;;;;;;;0.30;0.20;;;;;;;5.20;92.29;101242.19;4999116;28;20992;-50
2023/11/23 07:01:31;;;;;;;0.30;0.20;;;;;;;5.12;92.08;101237.75;5011076;28;21036;-49
2023/11/23 07:03:59;;;;;;;0.30;0.20;;;;;;;5.10;92.48;101250.91;5006300;28;20533;-49
2023/11/23 07:06:26;;;;;;;0.30;0.13;;;;;;;5.11;92.58;101249.16;5005385;28;20463;-50
2023/11/23 07:08:53;;;;;;;0.30;0.20;;;;;;;5.05;93.59;101239.44;4998847;28;20463;-49
2023/11/23 07:11:20;;;;;;;0.30;0.20;;;;;;;5.18;93.23;101243.94;4999267;28;20462;-50
2023/11/23 07:13:47;;;;;;;0.30;0.20;;;;;;;5.24;93.20;101240.50;5007645;28;20969;-48
2023/11/23 07:16:14;;;;;;;0.30;0.17;;;;;;;5.26;93.59;101241.38;5012300;28;20526;-50
2023/11/23 07:18:41;;;;;;;0.30;0.10;;;;;;;5.27;94.43;101243.16;4999805;28;20452;-49
2023/11/23 07:21:08;;;;;;;0.30;0.20;;;;;;;5.24;94.07;101238.75;4998645;28;20593;-48
2023/11/23 07:23:36;;;;;;;0.30;0.10;;;;;;;5.23;94.06;101242.25;5005326;28;20453;-49
2023/11/23 07:26:03;;;;;;;0.40;0.40;;;;;;;5.31;93.56;101237.03;5005296;28;20946;-50
2023/11/23 07:28:29;;;;;;;0.30;0.20;;;;;;;5.31;93.18;101224.72;4999717;28;20444;-49
2023/11/23 07:30:56;;;;;;;0.30;0.20;;;;;;;5.33;94.62;101222.97;5004254;28;20539;-49
2023/11/23 07:33:29;;;;;;;0.27;0.10;;;;;;;5.38;94.56;101224.78;5004512;28;20450;-49
2023/11/23 07:35:55;;;;;;;0.30;0.20;;;;;;;5.52;94.79;101225.78;5005553;28;20536;-49
2023/11/23 07:38:22;;;;;;;0.30;0.20;;;;;;;5.53;93.81;101217.88;5000674;28;21002;-49
2023/11/23 07:40:49;;;;;;;0.30;0.20;;;;;;;5.57;93.83;101219.66;4998542;28;20465;-49
2023/11/23 07:43:15;;;;;;;0.30;0.20;;;;;;;5.59;94.68;101219.66;5008144;28;20452;-49
2023/11/23 07:45:42;;;;;;;0.30;0.20;;;;;;;5.65;94.21;101215.31;5010370;28;20444;-49
2023/11/23 07:48:08;;;;;;;0.30;0.20;;;;;;;5.62;94.47;101220.56;5022098;28;20483;-48
2023/11/23 07:50:36;;;;;;;0.30;0.10;;;;;;;5.69;93.66;101216.22;4998666;28;20551;-49
2023/11/23 07:53:03;;;;;;;0.30;0.10;;;;;;;5.63;94.46;101210.91;5001914;28;20455;-49
2023/11/23 07:55:34;;;;;;;0.30;0.20;;;;;;;5.73;93.84;101204.78;5005319;28;20453;-49
2023/11/23 07:58:00;;;;;;;0.30;0.20;;;;;;;5.76;93.19;101201.31;5002760;28;21010;-49
2023/11/23 08:00:27;;;;;;;0.30;0.20;;;;;;;5.76;92.99;101202.19;4998221;28;20475;-49
2023/11/23 08:02:54;;;;;;;0.30;0.20;;;;;;;5.87;92.46;101196.94;5011723;28;20540;-49
2023/11/23 08:05:21;;;;;;;0.30;0.20;;;;;;;5.92;92.32;101206.72;4998783;28;20988;-49
2023/11/23 08:07:50;;;;;;;0.30;0.20;;;;;;;5.99;92.13;101215.53;5000870;28;20446;-49
2023/11/23 08:10:16;;;;;;;0.30;0.20;;;;;;;6.13;91.51;101205.91;5004896;28;20482;-49
2023/11/23 08:12:43;;;;;;;0.30;0.20;;;;;;;6.18;90.77;101211.22;5003474;28;20515;-49
2023/11/23 08:15:10;;;;;;;0.30;0.20;;;;;;;6.20;91.55;101212.13;4998225;28;20875;-49
2023/11/23 08:17:37;;;;;;;0.30;0.20;;;;;;;6.33;91.11;101208.66;5011520;28;20485;-49
2023/11/23 08:20:08;;;;;;;0.30;0.10;;;;;;;6.35;90.45;101209.53;4998025;28;20469;-49
2023/11/23 08:22:35;;;;;;;0.30;0.20;;;;;;;6.37;91.51;101202.50;4999315;28;20449;-49
2023/11/23 08:25:02;;;;;;;0.30;0.20;;;;;;;6.42;92.45;101205.13;5005148;28;20540;-49
2023/11/23 08:27:28;;;;;;;0.30;0.20;;;;;;;6.56;91.79;101203.41;5004791;28;20574;-49
2023/11/23 08:29:55;;;;;;;0.30;0.20;;;;;;;6.62;91.77;101199.94;4998261;28;20472;-49
2023/11/23 08:32:22;;;;;;;0.30;0.20;;;;;;;6.70;91.25;101198.16;5011053;28;20476;-49
2023/11/23 08:34:49;;;;;;;0.30;0.20;;;;;;;6.75;90.93;101196.44;4998931;28;20551;-49
2023/11/23 08:37:16;;;;;;;0.30;0.20;;;;;;;6.82;90.66;101187.63;5000274;28;20501;-49
2023/11/23 08:39:42;;;;;;;0.30;0.20;;;;;;;6.88;91.04;101187.63;5006909;28;20524;-50
2023/11/23 08:42:10;;;;;;;0.30;0.20;;;;;;;7.00;90.94;101189.41;5008552;28;20536;-50
2023/11/23 08:44:37;;;;;;;0.30;0.20;;;;;;;7.12;90.86;101192.91;4999905;28;20461;-50
2023/11/23 08:47:04;;;;;;;0.30;0.20;;;;;;;6.95;91.12;101191.16;5027807;28;20470;-50
2023/11/23 08:49:31;;;;;;;0.30;0.20;;;;;;;7.05;90.49;101190.28;5015011;28;20511;-50
2023/11/23 08:51:58;;;;;;;0.30;0.20;;;;;;;7.18;90.28;101184.13;5001724;28;20492;-49
2023/11/23 08:54:24;;;;;;;0.30;0.20;;;;;;;7.21;91.01;101186.75;5008002;28;20544;-49
2023/11/23 08:56:53;;;;;;;0.30;0.20;;;;;;;7.25;90.42;101190.28;5008315;28;20456;-49
2023/11/23 08:59:19;;;;;;;0.30;0.20;;;;;;;7.25;90.82;101180.56;5002480;28;20908;-49
2023/11/23 09:01:48;;;;;;;0.30;0.20;;;;;;;7.43;90.30;101179.69;5013332;28;20452;-49
2023/11/23 09:04:24;;;;;;;0.30;0.20;;;;;;;7.55;90.46;101166.44;5005723;28;20449;-49
2023/11/23 09:07:02;;;;;;;0.30;0.20;;;;;;;7.62;90.38;101165.53;5008246;28;20452;-49
2023/11/23 09:09:29;;;;;;;0.30;0.20;;;;;;;7.66;89.36;101167.28;5005612;28;20866;-49
2023/11/23 09:11:55;;;;;;;0.30;0.20;;;;;;;7.54;90.16;101159.41;5000977;28;20460;-49
2023/11/23 09:14:22;;;;;;;0.30;0.20;;;;;;;7.40;91.10;101153.22;5003556;28;20453;-49
2023/11/23 09:16:49;;;;;;;0.30;0.20;;;;;;;7.42;91.01;101154.13;5012241;28;20507;-49
2023/11/23 09:19:16;;;;;;;0.30;0.20;;;;;;;7.37;91.00;101146.19;5003387;28;20473;-50
2023/11/23 09:21:46;;;;;;;0.30;0.20;;;;;;;7.48;91.07;101161.16;5007736;28;20573;-49
2023/11/23 09:24:14;;;;;;;0.30;0.20;;;;;;;7.56;91.04;101169.97;5006551;28;20531;-49
2023/11/23 09:26:40;;;;;;;0.30;0.20;;;;;;;7.63;91.04;101167.28;5000768;28;20463;-49
2023/11/23 09:29:07;;;;;;;0.30;0.20;;;;;;;7.76;90.19;101168.16;5002023;28;20971;-50
2023/11/23 09:31:34;;;;;;;0.30;0.20;;;;;;;7.74;90.67;101164.63;5013108;28;20511;-49
2023/11/23 09:34:00;;;;;;;0.30;0.20;;;;;;;7.81;90.57;101155.81;5001916;28;20835;-49
2023/11/23 09:36:32;;;;;;;0.30;0.20;;;;;;;8.11;90.31;101156.56;5007499;28;20962;-49
2023/11/23 09:39:00;;;;;;;0.30;0.20;;;;;;;7.94;89.98;101148.66;5007223;28;20488;-49
2023/11/23 09:41:34;;;;;;;0.30;0.20;;;;;;;7.94;89.58;101143.38;5007647;28;20493;-49
2023/11/23 09:44:01;;;;;;;0.30;0.20;;;;;;;7.92;90.41;101148.66;5007447;28;20481;-47
2023/11/23 09:46:28;;;;;;;0.30;0.20;;;;;;;7.92;90.18;101148.66;5022766;28;20444;-49
2023/11/23 09:48:56;;;;;;;0.30;0.20;;;;;;;8.06;90.40;101151.25;5012561;28;20456;-49
2023/11/23 09:51:22;;;;;;;0.30;0.20;;;;;;;8.09;90.17;101151.28;5003519;28;20563;-49
2023/11/23 09:53:54;;;;;;;0.30;0.20;;;;;;;8.19;89.99;101144.16;5000377;28;20459;-49
2023/11/23 09:56:22;;;;;;;0.30;0.20;;;;;;;8.14;90.39;101149.47;5003627;28;20450;-49
2023/11/23 09:58:48;;;;;;;0.30;0.20;;;;;;;8.26;90.55;101132.66;5006862;28;20592;-48
2023/11/23 10:01:15;;;;;;;0.30;0.20;;;;;;;8.19;90.09;101137.06;5004431;28;21000;-48
2023/11/23 10:03:47;;;;;;;0.30;0.20;;;;;;;8.46;90.05;101140.50;5009284;28;20870;-49
2023/11/23 10:06:13;;;;;;;0.30;0.20;;;;;;;8.34;89.64;101138.78;5005123;28;20460;-48
2023/11/23 10:08:40;;;;;;;0.30;0.20;;;;;;;8.63;89.88;101137.72;5000197;28;20460;-48
2023/11/23 10:11:06;;;;;;;0.30;0.20;;;;;;;8.65;90.07;101135.97;5001524;28;20480;-49
2023/11/23 10:13:33;;;;;;;0.30;0.20;;;;;;;8.41;89.76;101129.06;5006855;28;20449;-48
2023/11/23 10:16:01;;;;;;;0.30;0.20;;;;;;;8.49;90.33;101125.44;5005106;28;20456;-50
2023/11/23 10:18:38;;;;;;;0.30;0.20;;;;;;;8.93;89.99;101123.38;5007318;28;20489;-49
2023/11/23 10:21:05;;;;;;;0.30;0.20;;;;;;;8.66;89.72;101116.53;5006438;28;20472;-48
2023/11/23 10:23:31;;;;;;;0.30;0.20;;;;;;;8.66;90.33;101106.81;5000883;28;20460;-48
2023/11/23 10:25:57;;;;;;;0.30;0.20;;;;;;;8.80;89.57;101098.75;4999998;28;20891;-49
2023/11/23 10:28:26;;;;;;;0.30;0.20;;;;;;;8.73;89.81;101103.19;5005439;28;20449;-48
2023/11/23 10:30:52;;;;;;;0.30;0.20;;;;;;;8.51;91.15;101107.81;5007649;28;20826;-49
2023/11/23 10:33:19;;;;;;;0.30;0.20;;;;;;;8.57;90.86;101089.19;5004438;28;20833;-48
2023/11/23 10:35:50;;;;;;;0.30;0.20;;;;;;;8.66;90.62;101077.66;5006504;28;20490;-48
2023/11/23 10:38:16;;;;;;;0.30;0.20;;;;;;;8.71;90.37;101077.59;5002096;28;20591;-48
2023/11/23 10:40:45;;;;;;;0.30;0.20;;;;;;;8.66;90.22;101069.69;4999517;28;20480;-49
2023/11/23 10:43:13;;;;;;;0.30;0.20;;;;;;;8.78;89.22;101071.38;5003345;28;20485;-48
2023/11/23 10:45:42;;;;;;;0.30;0.20;;;;;;;8.68;89.55;101080.28;5008508;28;20476;-49
2023/11/23 10:48:11;;;;;;;0.30;0.20;;;;;;;8.76;88.95;101075.78;5022963;28;20551;-48
2023/11/23 10:50:38;;;;;;;0.30;0.20;;;;;;;8.85;89.74;101066.00;4996711;28;20544;-48
2023/11/23 10:53:06;;;;;;;0.30;0.20;;;;;;;8.66;90.01;101071.47;5002923;28;20453;-48
2023/11/23 10:55:32;;;;;;;0.30;0.20;;;;;;;8.73;90.24;101062.56;4999501;28;20475;-48
2023/11/23 10:58:09;;;;;;;0.30;0.20;;;;;;;8.67;90.16;101047.59;5002116;28;21022;-48
2023/11/23 11:00:37;;;;;;;0.30;0.20;;;;;;;8.73;89.69;101044.00;5008831;28;21141;-48
2023/11/23 11:03:07;;;;;;;0.30;0.20;;;;;;;8.49;91.03;101034.50;5027492;28;20946;-49
2023/11/23 11:05:36;;;;;;;0.47;0.47;;;;;;;8.98;89.98;101034.06;4999254;28;20503;-48
2023/11/23 11:08:07;;;;;;;0.30;0.20;;;;;;;8.69;89.41;101042.28;4999451;28;20540;-49
2023/11/23 11:10:37;;;;;;;0.30;0.20;;;;;;;8.84;89.57;101027.13;4999574;28;20488;-49
2023/11/23 11:13:11;;;;;;;0.30;0.20;;;;;;;8.90;89.32;101020.88;4998959;28;20828;-49
2023/11/23 11:15:48;;;;;;;0.30;0.20;;;;;;;8.69;89.52;101015.78;5003651;28;20453;-49
2023/11/23 11:18:24;;;;;;;0.30;0.20;;;;;;;8.81;89.53;101000.66;5009150;28;20475;-49
2023/11/23 11:21:07;;;;;;;0.30;0.20;;;;;;;8.60;90.15;101011.44;5000849;28;20505;-49
2023/11/23 11:23:42;;;;;;;0.30;0.20;;;;;;;8.92;89.00;101021.75;4999631;28;20491;-50
2023/11/23 11:26:19;;;;;;;0.30;0.20;;;;;;;8.70;88.91;101026.38;4999163;28;20459;-49
2023/11/23 11:28:56;;;;;;;0.30;0.20;;;;;;;8.81;89.58;101018.31;5001787;28;21006;-49
2023/11/23 11:31:40;;;;;;;0.30;0.20;;;;;;;8.77;89.24;101017.50;5009224;28;20456;-49
2023/11/23 11:34:19;;;;;;;0.30;0.20;;;;;;;8.79;89.92;100998.91;4998654;28;20485;-49